createdAt,value
2018-04-27T00:05:41.070Z,32.72
2018-04-27T00:11:31.685Z,35.39
2018-04-27T00:17:22.293Z,35.42
2018-04-27T00:23:12.858Z,50.08
2018-04-27T00:29:03.515Z,42.92
2018-04-27T00:34:54.141Z,37.1
2018-04-27T00:40:44.724Z,31.36
2018-04-27T00:46:35.312Z,24.63
2018-04-27T00:52:25.937Z,25.5
2018-04-27T00:58:16.532Z,33.35
2018-04-27T01:04:07.115Z,31.92
2018-04-27T01:09:57.716Z,22.51
2018-04-27T01:15:48.361Z,25.36
2018-04-27T01:21:38.978Z,24.8
2018-04-27T01:27:29.574Z,25.49
2018-04-27T01:33:20.162Z,25.21
2018-04-27T01:39:10.750Z,21.16
2018-04-27T01:45:01.357Z,21.86
2018-04-27T01:50:51.947Z,23.29
2018-04-27T01:56:42.543Z,24.18
2018-04-27T02:02:33.143Z,27.33
2018-04-27T02:08:23.742Z,27.94
2018-04-27T02:14:14.457Z,26.54
2018-04-27T02:20:04.986Z,26.39
2018-04-27T02:25:55.546Z,29.33
2018-04-27T02:31:46.133Z,28.09
2018-04-27T02:37:36.754Z,29.18
2018-04-27T02:43:27.381Z,26.82
2018-04-27T02:49:17.935Z,32.7
2018-04-27T02:55:08.556Z,36.12
2018-04-27T03:00:59.161Z,39.32
2018-04-27T03:06:49.736Z,38.14
2018-04-27T03:12:40.332Z,33.66
2018-04-27T03:18:30.880Z,41.44
2018-04-27T03:24:21.487Z,31.49
2018-04-27T03:30:12.068Z,30.17
2018-04-27T03:36:02.634Z,34.01
2018-04-27T03:41:53.268Z,32.68
2018-04-27T03:47:43.872Z,32.95
2018-04-27T03:53:34.389Z,35.66
2018-04-27T03:59:25.001Z,33.39
2018-04-27T04:05:15.592Z,30.25
2018-04-27T04:11:06.230Z,34.82
2018-04-27T04:16:56.862Z,32.92
2018-04-27T04:22:47.430Z,40
2018-04-27T04:28:37.984Z,38.79
2018-04-27T04:34:28.553Z,35.86
2018-04-27T04:40:19.119Z,32.83
2018-04-27T04:46:09.841Z,34.27
2018-04-27T04:52:00.452Z,35.59
2018-04-27T04:57:50.985Z,29.16
2018-04-27T05:03:41.585Z,33.28
2018-04-27T05:09:32.158Z,33.74
2018-04-27T05:15:22.780Z,32.79
2018-04-27T05:21:13.358Z,31.31
2018-04-27T05:27:03.996Z,31.99
2018-04-27T05:32:54.575Z,37.5
2018-04-27T05:38:45.153Z,33.55
2018-04-27T05:44:35.785Z,41.04
2018-04-27T05:50:26.375Z,61.34
2018-04-27T05:56:17.067Z,95.19
2018-04-27T06:02:07.681Z,56.09
2018-04-27T06:07:58.275Z,46.19
2018-04-27T06:13:49.006Z,36.4
2018-04-27T06:19:39.627Z,47.34
2018-04-27T06:25:30.224Z,50.44
2018-04-27T06:31:20.892Z,51.83
2018-04-27T06:37:11.510Z,51.75
2018-04-27T06:43:02.263Z,38.13
2018-04-27T06:48:52.834Z,48.54
2018-04-27T06:54:43.495Z,39.25
2018-04-27T07:00:34.158Z,43.51
2018-04-27T07:06:24.861Z,47.88
2018-04-27T07:12:15.493Z,35.79
2018-04-27T07:18:06.141Z,34.05
2018-04-27T07:23:56.848Z,43.2
2018-04-27T07:29:47.475Z,37.94
2018-04-27T07:35:38.150Z,38.65
2018-04-27T07:41:28.851Z,31.7
2018-04-27T07:47:19.545Z,41.52
2018-04-27T07:53:10.189Z,40.57
2018-04-27T07:59:00.877Z,41.43
2018-04-27T08:04:51.588Z,38.77
2018-04-27T08:10:42.282Z,39.71
2018-04-27T08:16:33.035Z,30.53
2018-04-27T08:22:23.676Z,35.27
2018-04-27T08:28:14.378Z,35.46
2018-04-27T08:34:05.034Z,39.43
2018-04-27T08:39:55.804Z,39.15
2018-04-27T08:45:46.448Z,37.49
2018-04-27T08:51:37.154Z,32.49
2018-04-27T08:57:27.865Z,27.23
2018-04-27T09:03:18.543Z,35.83
2018-04-27T09:09:09.219Z,28.12
2018-04-27T09:14:59.913Z,32.21
2018-04-27T09:20:50.576Z,26.73
2018-04-27T09:26:41.259Z,34.09
2018-04-27T09:32:31.923Z,37.37
2018-04-27T09:38:22.606Z,23.46
2018-04-27T09:44:13.275Z,27.93
2018-04-27T09:50:03.975Z,25.03
2018-04-27T09:55:54.595Z,22.9
2018-04-27T10:01:45.328Z,28.86
2018-04-27T10:07:35.983Z,21.08
2018-04-27T10:13:26.657Z,16.65
2018-04-27T10:19:17.365Z,18.38
2018-04-27T10:25:08.074Z,13.05
2018-04-27T10:30:58.800Z,13.87
2018-04-27T10:36:49.418Z,15.6
2018-04-27T10:42:40.133Z,17.11
2018-04-27T10:48:30.867Z,14.61
2018-04-27T10:54:21.515Z,16.96
2018-04-27T11:00:12.269Z,14.1
2018-04-27T11:06:02.950Z,14.97
2018-04-27T11:11:53.714Z,19.96
2018-04-27T11:17:44.368Z,14.8
2018-04-27T11:23:35.054Z,21.68
2018-04-27T11:29:25.717Z,20.84
2018-04-27T11:35:16.496Z,13.06
2018-04-27T11:41:07.122Z,17.89
2018-04-27T11:46:57.839Z,18.62
2018-04-27T11:52:48.509Z,22.7
2018-04-27T11:58:39.279Z,20.28
2018-04-27T12:04:29.888Z,18.09
2018-04-27T12:10:20.620Z,16.02
2018-04-27T12:16:11.275Z,23.43
2018-04-27T12:22:01.932Z,21.11
2018-04-27T12:27:52.706Z,21
2018-04-27T12:33:43.327Z,14.84
2018-04-27T12:39:34.030Z,18.05
2018-04-27T12:45:24.708Z,13.81
2018-04-27T12:51:15.405Z,16.4
2018-04-27T12:57:06.062Z,17.84
2018-04-27T13:02:56.801Z,17.67
2018-04-27T13:08:47.440Z,18.95
2018-04-27T13:14:38.099Z,15.75
2018-04-27T13:20:28.805Z,15.63
2018-04-27T13:26:19.558Z,20.46
2018-04-27T13:32:10.163Z,19.69
2018-04-27T13:38:00.829Z,31.26
2018-04-27T13:43:51.535Z,21.17
2018-04-27T13:49:42.227Z,19.64
2018-04-27T13:55:32.943Z,18.66
2018-04-27T14:01:23.683Z,14.77
2018-04-27T14:07:14.355Z,13.56
2018-04-27T14:13:05.059Z,24.51
2018-04-27T14:18:55.762Z,14.14
2018-04-27T14:24:46.525Z,16.55
2018-04-27T14:30:37.154Z,17.41
2018-04-27T14:36:27.861Z,13.63
2018-04-27T14:42:18.562Z,14.95
2018-04-27T14:48:09.243Z,19.82
2018-04-27T14:53:59.915Z,22.1
2018-04-27T14:59:50.650Z,23.9
2018-04-27T15:05:41.335Z,19.84
2018-04-27T15:11:32.064Z,18.32
2018-04-27T15:17:22.685Z,15.73
2018-04-27T15:23:13.390Z,18.54
2018-04-27T15:29:04.105Z,16.32
2018-04-27T15:34:54.863Z,14.71
2018-04-27T15:40:45.490Z,21.63
2018-04-27T15:46:36.193Z,21.41
2018-04-27T15:52:26.992Z,14.63
2018-04-27T15:58:17.610Z,23.48
2018-04-27T16:04:08.305Z,21.32
2018-04-27T16:09:59.025Z,19.02
2018-04-27T16:15:49.792Z,22.9
2018-04-27T16:21:40.487Z,18.23
2018-04-27T16:27:31.172Z,18.34
2018-04-27T16:33:21.847Z,20.77
2018-04-27T16:39:12.566Z,20.4
2018-04-27T16:45:03.262Z,19.14
2018-04-27T16:50:53.912Z,22.8
2018-04-27T16:56:44.665Z,10.69
2018-04-27T17:02:35.329Z,26.73
2018-04-27T17:08:26.035Z,24.58
2018-04-27T17:14:16.690Z,22.94
2018-04-27T17:20:07.438Z,16
2018-04-27T17:25:58.105Z,17.85
2018-04-27T17:31:48.763Z,18.46
2018-04-27T17:37:39.507Z,18.83
2018-04-27T17:43:30.186Z,21.86
2018-04-27T17:49:20.833Z,23.85
2018-04-27T17:55:11.526Z,17.51
2018-04-27T18:01:02.221Z,15.72
2018-04-27T18:06:52.885Z,21.97
2018-04-27T18:12:43.634Z,31.15
2018-04-27T18:18:34.293Z,21.25
2018-04-27T18:24:24.956Z,31.91
2018-04-27T18:30:15.622Z,30.79
2018-04-27T18:36:06.318Z,25.53
2018-04-27T18:41:57.040Z,20.59
2018-04-27T18:47:47.736Z,22.71
2018-04-27T18:53:38.400Z,22.6
2018-04-27T18:59:29.084Z,28.07
2018-04-27T19:05:19.775Z,23.77
2018-04-27T19:11:10.470Z,24.65
2018-04-27T19:17:01.184Z,24.49
2018-04-27T19:22:51.809Z,27.58
2018-04-27T19:28:42.546Z,18.67
2018-04-27T19:34:33.204Z,30.52
2018-04-27T19:40:23.905Z,30.86
2018-04-27T19:46:14.595Z,57.63
2018-04-27T19:52:05.259Z,38.03
2018-04-27T19:57:55.991Z,25.64
2018-04-27T20:03:46.625Z,23.86
2018-04-27T20:09:37.381Z,18.19
2018-04-27T20:15:27.984Z,28.14
2018-04-27T20:21:18.696Z,45.75
2018-04-27T20:27:09.392Z,29.58
2018-04-27T20:33:00.044Z,29.27
2018-04-27T20:38:50.742Z,25.97
2018-04-27T20:44:41.423Z,25.93
2018-04-27T20:50:32.123Z,21.82
2018-04-27T20:56:22.776Z,20.22
2018-04-27T21:02:13.460Z,34.26
2018-04-27T21:08:04.150Z,26.26
2018-04-27T21:13:54.826Z,24.25
2018-04-27T21:19:45.515Z,27.11
2018-04-27T21:25:36.161Z,22.61
2018-04-27T21:31:26.865Z,26.39
2018-04-27T21:37:17.536Z,23.3
2018-04-27T21:43:08.211Z,29.86
2018-04-27T21:48:58.916Z,17.82
2018-04-27T21:54:49.595Z,21.42
2018-04-27T22:00:40.271Z,24.41
2018-04-27T22:06:30.915Z,22.42
2018-04-27T22:12:21.607Z,23.83
2018-04-27T22:18:12.248Z,22.49
2018-04-27T22:24:02.958Z,18.31
2018-04-27T22:29:53.650Z,24
2018-04-27T22:35:44.266Z,20.86
2018-04-27T22:41:35.030Z,30.65
2018-04-27T22:53:16.269Z,21.39
2018-04-27T22:59:07.058Z,26.91
2018-04-27T23:04:57.647Z,22.07
2018-04-27T23:10:48.357Z,20.11
2018-04-27T23:16:38.981Z,25.91
2018-04-27T23:22:29.635Z,21.57
2018-04-27T23:28:20.325Z,24.8
2018-04-27T23:34:10.955Z,28.8
2018-04-27T23:40:01.651Z,23.15
2018-04-27T23:45:52.293Z,22.23
2018-04-27T23:51:42.915Z,26.03
2018-04-27T23:57:33.579Z,25.64
